Time;durP1;ratioP1;P1;durP2;ratioP2;P2;SDS_P1;SDS_P2;PMS_P1;PMS_P2;Temp;Humidity;BMP_temperature;BMP_pressure;BME280_temperature;BME280_humidity;BME280_pressure;Samples;Min_cycle;Max_cycle;Signal;HPM_P1;HPM_P2
2021/10/14 00:01:32;;;;;;;7.43;2.10;;;;;;;;;;21082060;28;20109;-62
2021/10/14 00:11:34;;;;;;;4.18;1.90;;;;;;;;;;21079833;28;20047;-63
2021/10/14 00:21:35;;;;;;;7.53;2.17;;;;;;;;;;21096312;28;20072;-66
2021/10/14 00:31:37;;;;;;;5.07;2.40;;;;;;;;;;21098463;28;20432;-65
2021/10/14 00:41:40;;;;;;;5.57;2.20;;;;;;;;;;21098440;28;20048;-69
2021/10/14 00:51:42;;;;;;;5.85;2.28;;;;;;;;;;21096852;28;20056;-68
2021/10/14 01:01:44;;;;;;;5.28;3.25;;;;;;;;;;21110952;28;20393;-58
2021/10/14 01:11:46;;;;;;;3.88;2.30;;;;;;;;;;21094767;28;20143;-68
2021/10/14 01:21:49;;;;;;;4.38;2.13;;;;;;;;;;21091997;28;20450;-60
2021/10/14 01:31:52;;;;;;;6.13;2.00;;;;;;;;;;21099890;28;20074;-64
2021/10/14 01:41:56;;;;;;;5.60;2.80;;;;;;;;;;21092186;28;20433;-68
2021/10/14 01:51:58;;;;;;;3.83;1.65;;;;;;;;;;21088954;28;20454;-70
2021/10/14 02:02:01;;;;;;;4.32;1.98;;;;;;;;;;21100101;28;20070;-58
2021/10/14 02:12:05;;;;;;;3.43;2.20;;;;;;;;;;21106504;28;20504;-63
2021/10/14 02:22:10;;;;;;;3.03;1.80;;;;;;;;;;21087414;28;20074;-59
2021/10/14 02:32:13;;;;;;;2.23;1.40;;;;;;;;;;21085643;28;20139;-69
2021/10/14 02:42:16;;;;;;;3.78;1.77;;;;;;;;;;21087322;28;20052;-62
2021/10/14 02:52:20;;;;;;;3.97;2.17;;;;;;;;;;21084283;28;20052;-60
2021/10/14 03:02:23;;;;;;;5.45;1.90;;;;;;;;;;21084645;28;20051;-67
2021/10/14 03:12:31;;;;;;;5.22;2.20;;;;;;;;;;21086226;28;20548;-68
2021/10/14 03:22:39;;;;;;;3.20;1.88;;;;;;;;;;21083975;28;20055;-69
2021/10/14 03:32:55;;;;;;;3.75;2.03;;;;;;;;;;21083990;28;20055;-69
2021/10/14 03:43:17;;;;;;;4.38;2.28;;;;;;;;;;21083206;28;20048;-64
2021/10/14 03:53:28;;;;;;;4.20;2.00;;;;;;;;;;21095898;28;20052;-69
2021/10/14 04:03:35;;;;;;;3.42;1.65;;;;;;;;;;21082004;28;20048;-68
2021/10/14 04:13:43;;;;;;;2.92;1.70;;;;;;;;;;21078464;28;20496;-59
2021/10/14 04:23:55;;;;;;;5.25;2.20;;;;;;;;;;21077876;28;20044;-66
2021/10/14 04:33:59;;;;;;;5.30;2.05;;;;;;;;;;21080214;28;20048;-61
2021/10/14 04:44:12;;;;;;;3.58;2.42;;;;;;;;;;21077700;28;20127;-58
2021/10/14 04:54:21;;;;;;;4.55;2.28;;;;;;;;;;21076511;28;20143;-68
2021/10/14 05:04:24;;;;;;;5.13;1.90;;;;;;;;;;21086760;28;20494;-69
2021/10/14 05:14:29;;;;;;;4.95;2.10;;;;;;;;;;21093529;28;20090;-71
2021/10/14 05:24:31;;;;;;;5.85;2.13;;;;;;;;;;21093624;28;20044;-70
2021/10/14 05:34:33;;;;;;;5.10;2.20;;;;;;;;;;21093397;28;20052;-68
2021/10/14 05:44:36;;;;;;;4.93;2.40;;;;;;;;;;21093446;28;20083;-69
2021/10/14 05:54:39;;;;;;;5.40;2.25;;;;;;;;;;21123778;28;20052;-69
2021/10/14 06:04:41;;;;;;;7.10;3.58;;;;;;;;;;21141528;28;20092;-68
2021/10/14 06:14:44;;;;;;;6.35;3.58;;;;;;;;;;21099567;28;20083;-67
2021/10/14 06:24:45;;;;;;;5.97;2.83;;;;;;;;;;21086943;28;20048;-68
2021/10/14 06:34:48;;;;;;;7.22;2.80;;;;;;;;;;21088598;28;20055;-65
2021/10/14 06:44:49;;;;;;;7.78;3.08;;;;;;;;;;21121968;28;20044;-64
2021/10/14 06:54:51;;;;;;;8.25;2.22;;;;;;;;;;21110450;28;20054;-64
2021/10/14 07:04:54;;;;;;;6.65;2.50;;;;;;;;;;21083046;28;20048;-67
2021/10/14 07:14:56;;;;;;;11.40;6.00;;;;;;;;;;21082214;28;20083;-62
2021/10/14 07:24:57;;;;;;;8.75;3.30;;;;;;;;;;21081357;28;20040;-63
2021/10/14 07:34:59;;;;;;;10.27;2.88;;;;;;;;;;21080741;28;20059;-69
2021/10/14 07:45:02;;;;;;;6.57;2.88;;;;;;;;;;21088011;28;20044;-68
2021/10/14 07:55:04;;;;;;;9.88;4.05;;;;;;;;;;21079573;28;20056;-58
2021/10/14 08:05:07;;;;;;;13.95;4.35;;;;;;;;;;21081198;28;20112;-68
2021/10/14 08:15:09;;;;;;;10.57;4.20;;;;;;;;;;21078805;28;20048;-69
2021/10/14 08:25:12;;;;;;;6.43;3.70;;;;;;;;;;21078827;28;20443;-67
2021/10/14 08:35:16;;;;;;;13.07;4.18;;;;;;;;;;21081652;28;20689;-66
2021/10/14 08:45:18;;;;;;;12.27;5.00;;;;;;;;;;21094743;28;20504;-60
2021/10/14 08:55:20;;;;;;;15.70;5.32;;;;;;;;;;21091956;28;20119;-67
2021/10/14 09:05:24;;;;;;;13.60;6.33;;;;;;;;;;21091720;28;20048;-68
2021/10/14 09:15:26;;;;;;;16.00;6.88;;;;;;;;;;21090041;28;20054;-68
2021/10/14 09:25:29;;;;;;;16.55;7.85;;;;;;;;;;21088686;28;20093;-67
2021/10/14 09:35:30;;;;;;;19.27;8.75;;;;;;;;;;21079944;28;20051;-68
2021/10/14 09:45:32;;;;;;;7.45;4.70;;;;;;;;;;21088196;28;20109;-60
2021/10/14 09:55:34;;;;;;;11.07;7.45;;;;;;;;;;21087416;28;20062;-59
2021/10/14 10:05:38;;;;;;;10.45;8.05;;;;;;;;;;21087541;28;20055;-59
2021/10/14 10:15:43;;;;;;;13.07;10.13;;;;;;;;;;21085634;28;20052;-61
2021/10/14 10:25:45;;;;;;;18.45;11.38;;;;;;;;;;21085130;28;20047;-67
2021/10/14 10:35:49;;;;;;;19.23;12.63;;;;;;;;;;21084693;28;20415;-70
2021/10/14 10:45:52;;;;;;;16.23;11.30;;;;;;;;;;21083732;28;20048;-67
2021/10/14 10:56:01;;;;;;;12.90;8.93;;;;;;;;;;21081945;28;20078;-66
2021/10/14 11:06:10;;;;;;;16.92;8.98;;;;;;;;;;21081177;28;20044;-65
2021/10/14 11:16:13;;;;;;;13.00;8.90;;;;;;;;;;21083255;28;20138;-61
2021/10/14 11:26:19;;;;;;;15.40;9.15;;;;;;;;;;21080851;28;20047;-63
2021/10/14 11:36:21;;;;;;;11.73;9.70;;;;;;;;;;21079142;28;20055;-63
2021/10/14 11:46:25;;;;;;;12.83;9.30;;;;;;;;;;21078601;28;20056;-66
2021/10/14 11:56:28;;;;;;;15.63;9.67;;;;;;;;;;21077107;28;20864;-64
2021/10/14 12:06:29;;;;;;;15.70;9.25;;;;;;;;;;21078061;28;20109;-65
2021/10/14 12:16:33;;;;;;;10.25;7.85;;;;;;;;;;21094516;28;20059;-66
2021/10/14 12:26:39;;;;;;;9.18;7.13;;;;;;;;;;21094644;28;20044;-62
2021/10/14 12:36:43;;;;;;;13.68;8.23;;;;;;;;;;21094254;28;20059;-61
2021/10/14 12:47:00;;;;;;;11.40;7.05;;;;;;;;;;21093627;28;20040;-63
2021/10/14 12:57:02;;;;;;;10.20;6.57;;;;;;;;;;21092962;28;20051;-63
2021/10/14 13:07:04;;;;;;;10.23;6.72;;;;;;;;;;21091771;28;20048;-63
2021/10/14 13:17:07;;;;;;;11.77;6.30;;;;;;;;;;21091205;28;20067;-63
2021/10/14 13:27:09;;;;;;;7.93;6.03;;;;;;;;;;21089854;28;20048;-63
2021/10/14 13:37:13;;;;;;;8.57;4.82;;;;;;;;;;21089032;28;20393;-64
2021/10/14 13:47:16;;;;;;;9.35;6.20;;;;;;;;;;21088342;28;20052;-64
2021/10/14 13:57:18;;;;;;;11.52;6.38;;;;;;;;;;21087381;28;20047;-63
2021/10/14 14:07:20;;;;;;;7.97;4.93;;;;;;;;;;21086980;28;20071;-63
2021/10/14 14:17:23;;;;;;;6.83;4.43;;;;;;;;;;21085488;28;20052;-65
2021/10/14 14:27:26;;;;;;;6.95;3.58;;;;;;;;;;21084802;28;20040;-64
2021/10/14 14:37:30;;;;;;;7.57;3.67;;;;;;;;;;21082405;28;20051;-64
2021/10/14 14:47:40;;;;;;;5.38;3.53;;;;;;;;;;21083308;28;20048;-64
2021/10/14 14:57:42;;;;;;;8.07;3.25;;;;;;;;;;21081915;28;20063;-64
2021/10/14 15:07:45;;;;;;;5.10;3.00;;;;;;;;;;21080689;28;20104;-62
2021/10/14 15:17:47;;;;;;;7.23;3.53;;;;;;;;;;21081934;28;20056;-64
2021/10/14 15:27:49;;;;;;;10.73;4.90;;;;;;;;;;21080393;28;20076;-63
2021/10/14 15:37:54;;;;;;;5.23;2.47;;;;;;;;;;21078933;28;20089;-64
2021/10/14 15:48:02;;;;;;;6.75;3.67;;;;;;;;;;21079004;28;20048;-62
2021/10/14 15:58:05;;;;;;;6.90;3.03;;;;;;;;;;21077594;28;20067;-63
2021/10/14 16:08:09;;;;;;;10.40;4.32;;;;;;;;;;21077831;28;20101;-63
2021/10/14 16:18:12;;;;;;;4.90;3.25;;;;;;;;;;21078067;28;20472;-65
2021/10/14 16:28:14;;;;;;;7.32;2.95;;;;;;;;;;21077280;28;20048;-63
2021/10/14 16:38:17;;;;;;;8.57;3.67;;;;;;;;;;21076319;28;20497;-63
2021/10/14 16:48:19;;;;;;;7.87;4.00;;;;;;;;;;21077108;28;20059;-66
2021/10/14 16:58:22;;;;;;;9.13;3.90;;;;;;;;;;21084631;28;20093;-63
2021/10/14 17:08:24;;;;;;;12.33;8.97;;;;;;;;;;21090382;28;20079;-64
2021/10/14 17:18:29;;;;;;;;;;;;;;;;;;21090387;28;20575;-63
2021/10/14 17:39:17;;;;;;;11.02;4.57;;;;;;;;;;21087861;28;20052;-63
2021/10/14 17:49:19;;;;;;;9.85;4.85;;;;;;;;;;21086515;28;20040;-63
2021/10/14 17:59:21;;;;;;;10.10;5.18;;;;;;;;;;21085776;28;20056;-65
2021/10/14 18:40:25;;;;;;;12.25;6.60;;;;;;;;;;21081705;28;20074;-65
2021/10/14 18:50:33;;;;;;;19.00;7.72;;;;;;;;;;21082407;28;20419;-64
2021/10/14 19:00:34;;;;;;;14.23;7.15;;;;;;;;;;21081163;28;20051;-64
2021/10/14 20:22:37;;;;;;;14.68;7.13;;;;;;;;;;21077325;28;20048;-61
2021/10/14 20:32:41;;;;;;;9.80;4.88;;;;;;;;;;21086015;28;20544;-63
2021/10/14 20:42:43;;;;;;;15.02;4.97;;;;;;;;;;21093263;28;20044;-63
2021/10/14 21:02:47;;;;;;;7.07;4.03;;;;;;;;;;21091563;28;20048;-63
2021/10/14 21:12:50;;;;;;;8.48;4.57;;;;;;;;;;21091691;28;20454;-63
2021/10/14 21:22:52;;;;;;;8.85;5.45;;;;;;;;;;21090406;28;20048;-64
2021/10/14 21:43:16;;;;;;;12.07;5.05;;;;;;;;;;21089543;28;20139;-62
2021/10/14 21:53:19;;;;;;;8.52;4.10;;;;;;;;;;21088972;28;20138;-63
2021/10/14 22:03:22;;;;;;;5.75;4.03;;;;;;;;;;21088187;28;20064;-64
2021/10/14 22:13:24;;;;;;;7.93;3.70;;;;;;;;;;21086675;28;20451;-63
2021/10/14 22:23:26;;;;;;;7.43;4.00;;;;;;;;;;21085204;28;20040;-62
2021/10/14 22:33:28;;;;;;;6.90;3.90;;;;;;;;;;21084699;28;20052;-63
2021/10/14 22:43:30;;;;;;;8.13;4.10;;;;;;;;;;21085029;28;20078;-61
2021/10/14 22:53:32;;;;;;;9.40;4.45;;;;;;;;;;21082148;28;20052;-62
2021/10/14 23:03:34;;;;;;;6.63;4.35;;;;;;;;;;21082624;28;20075;-63
2021/10/14 23:13:36;;;;;;;6.72;4.18;;;;;;;;;;21082513;28;20061;-63
2021/10/14 23:23:38;;;;;;;7.72;3.83;;;;;;;;;;21081356;28;20507;-64
2021/10/14 23:33:40;;;;;;;11.10;5.50;;;;;;;;;;21081070;28;20112;-63
2021/10/14 23:43:42;;;;;;;7.85;4.45;;;;;;;;;;21080268;28;20043;-63
2021/10/14 23:53:44;;;;;;;8.80;4.22;;;;;;;;;;21079574;28;20048;-63
